Time;durP1;ratioP1;P1;durP2;ratioP2;P2;SDS_P1;SDS_P2;PMS_P1;PMS_P2;Temp;Humidity;BMP_temperature;BMP_pressure;BME280_temperature;BME280_humidity;BME280_pressure;Samples;Min_cycle;Max_cycle;Signal;HPM_P1;HPM_P2
2021/11/17 02:27:00;;;;;;;34.55;26.45;;;;;;;9.16;68.69;102356.75;2064242;28;20468;-61
2021/11/17 02:28:34;;;;;;;32.10;26.70;;;;;;;9.22;68.55;102363.56;2067184;28;20157;-61
2021/11/17 02:29:59;;;;;;;31.77;25.50;;;;;;;9.27;68.50;102364.00;2072916;28;20164;-61
2021/11/17 02:31:12;;;;;;;33.65;25.77;;;;;;;9.32;68.39;102363.66;2072690;28;20159;-61
2021/11/17 02:32:33;;;;;;;31.92;26.15;;;;;;;9.26;68.08;102347.78;2072705;28;20171;-61
2021/11/17 02:33:50;;;;;;;33.53;25.10;;;;;;;9.34;68.09;102360.50;2072210;28;20198;-61
2021/11/17 02:35:04;;;;;;;30.03;24.57;;;;;;;9.27;68.15;102355.69;2072139;28;20171;-61
2021/11/17 02:36:52;;;;;;;33.53;26.42;;;;;;;9.23;68.01;102354.84;2077221;28;20994;-61
2021/11/17 02:38:14;;;;;;;33.90;24.40;;;;;;;9.25;68.38;102349.75;2071704;28;20710;-61
2021/11/17 02:39:17;;;;;;;31.70;24.38;;;;;;;9.28;67.88;102353.72;2063758;28;20219;-61
2021/11/17 02:40:36;;;;;;;32.38;24.52;;;;;;;9.33;68.14;102358.91;2063788;28;20183;-60
2021/11/17 02:42:03;;;;;;;33.50;24.75;;;;;;;9.33;67.89;102359.69;2071691;28;20171;-61
2021/11/17 02:43:09;;;;;;;32.60;23.87;;;;;;;9.35;68.03;102348.25;2067144;28;20272;-61
2021/11/17 02:44:31;;;;;;;29.37;23.73;;;;;;;9.39;67.35;102358.16;2080707;28;20396;-61
2021/11/17 02:45:46;;;;;;;33.87;24.13;;;;;;;9.40;67.37;102354.25;2081088;28;20410;-60
2021/11/17 02:47:05;;;;;;;32.57;23.20;;;;;;;9.42;67.45;102353.84;2080757;28;20812;-61
2021/11/17 02:48:30;;;;;;;30.75;23.05;;;;;;;9.27;67.33;102333.56;2080826;28;20433;-61
2021/11/17 02:49:55;;;;;;;30.40;23.90;;;;;;;9.41;67.54;102357.78;2080310;28;20174;-61
2021/11/17 02:50:55;;;;;;;30.50;23.93;;;;;;;9.44;67.44;102357.81;2080537;28;20388;-61
2021/11/17 02:52:05;;;;;;;30.70;23.83;;;;;;;9.48;67.21;102357.84;2080691;28;20405;-61
2021/11/17 02:53:21;;;;;;;30.20;23.10;;;;;;;9.46;67.43;102355.47;2080388;28;20416;-61
2021/11/17 02:54:24;;;;;;;29.20;23.55;;;;;;;9.45;67.14;102356.66;2079963;28;20169;-61
2021/11/17 02:55:43;;;;;;;29.33;23.70;;;;;;;9.49;67.04;102351.16;2080003;28;20234;-61
2021/11/17 02:56:58;;;;;;;27.80;22.57;;;;;;;9.46;67.15;102349.94;2080767;28;20477;-61
2021/11/17 02:58:15;;;;;;;26.53;23.03;;;;;;;9.46;67.26;102352.69;2088297;28;20428;-60
2021/11/17 02:59:27;;;;;;;26.63;22.77;;;;;;;9.49;66.80;102343.63;2079010;28;20466;-61
2021/11/17 03:01:01;;;;;;;29.70;22.77;;;;;;;9.51;66.88;102344.03;2072564;28;20470;-61
2021/11/17 03:02:25;;;;;;;25.60;21.63;;;;;;;9.49;66.69;102343.63;2072343;28;20541;-61
2021/11/17 03:03:51;;;;;;;27.88;22.15;;;;;;;9.47;67.00;102339.63;2072634;28;20168;-61
2021/11/17 03:04:54;;;;;;;25.98;21.63;;;;;;;9.42;66.74;102342.75;2072466;28;20550;-61
2021/11/17 03:06:10;;;;;;;28.50;21.97;;;;;;;9.39;67.10;102346.31;2072462;28;20182;-61
2021/11/17 03:07:46;;;;;;;31.03;23.13;;;;;;;9.40;67.30;102351.47;2072617;28;20787;-61
2021/11/17 03:09:08;;;;;;;29.38;22.58;;;;;;;9.43;66.94;102347.91;2063498;28;20434;-60
2021/11/17 03:10:08;;;;;;;30.15;22.40;;;;;;;9.37;67.25;102340.38;2080014;28;20176;-61
2021/11/17 03:11:30;;;;;;;29.77;23.33;;;;;;;9.36;67.29;102345.09;2080179;28;20185;-61
2021/11/17 03:12:48;;;;;;;28.87;22.20;;;;;;;9.29;67.18;102339.53;2072504;28;20668;-61
2021/11/17 03:14:01;;;;;;;27.47;22.87;;;;;;;9.25;67.45;102344.22;2072532;28;20409;-60
2021/11/17 03:15:20;;;;;;;27.30;22.27;;;;;;;9.31;67.75;102339.13;2072539;28;20433;-61
2021/11/17 03:16:23;;;;;;;28.70;22.63;;;;;;;9.35;67.53;102338.00;2072521;28;20279;-61
2021/11/17 03:17:48;;;;;;;30.93;23.20;;;;;;;9.36;67.46;102338.75;2072595;28;20420;-61
2021/11/17 03:19:20;;;;;;;26.33;21.53;;;;;;;9.37;67.49;102338.38;2072476;28;20411;-61
2021/11/17 03:20:42;;;;;;;28.67;21.93;;;;;;;9.39;67.67;102336.03;2071758;28;20449;-61
2021/11/17 03:22:14;;;;;;;27.53;21.23;;;;;;;9.41;67.43;102335.66;2072092;28;20421;-61
2021/11/17 03:23:36;;;;;;;31.05;22.63;;;;;;;9.40;67.26;102334.88;2072667;28;20405;-61
2021/11/17 03:24:54;;;;;;;26.88;20.98;;;;;;;9.36;67.12;102334.03;2072165;28;20166;-61
2021/11/17 03:26:10;;;;;;;26.45;20.75;;;;;;;9.40;67.66;102326.56;2072570;28;20167;-61
2021/11/17 03:27:26;;;;;;;28.67;21.67;;;;;;;9.45;66.98;102336.47;2072563;28;20159;-61
2021/11/17 03:28:59;;;;;;;30.17;22.17;;;;;;;9.39;67.18;102332.47;2072418;28;20501;-61
2021/11/17 03:30:02;;;;;;;26.73;21.13;;;;;;;9.33;67.06;102329.25;2063381;28;20617;-61
2021/11/17 03:31:41;;;;;;;30.25;22.67;;;;;;;9.29;67.12;102325.69;2070028;28;21023;-61
2021/11/17 03:32:44;;;;;;;25.83;19.67;;;;;;;9.28;67.20;102335.16;2063994;28;20194;-61
2021/11/17 03:34:06;;;;;;;25.67;20.67;;;;;;;9.27;67.19;102327.25;2072577;28;20177;-61
2021/11/17 03:35:32;;;;;;;31.02;21.80;;;;;;;9.32;67.46;102330.44;2072453;28;20844;-61
2021/11/17 03:36:38;;;;;;;27.13;19.98;;;;;;;9.34;67.04;102328.09;2072568;28;20167;-61
2021/11/17 03:38:03;;;;;;;26.58;21.45;;;;;;;9.31;67.00;102325.28;2080013;28;20274;-61
2021/11/17 03:39:25;;;;;;;27.90;20.20;;;;;;;9.29;67.10;102331.22;2077104;28;20307;-61
2021/11/17 03:40:41;;;;;;;26.95;20.85;;;;;;;9.28;67.03;102326.84;2071804;28;20507;-61
2021/11/17 03:42:07;;;;;;;28.13;20.00;;;;;;;9.29;67.18;102325.69;2071933;28;20266;-61
2021/11/17 03:43:17;;;;;;;25.38;20.08;;;;;;;9.30;67.09;102330.03;2072421;28;20166;-61
2021/11/17 03:44:38;;;;;;;25.65;19.60;;;;;;;9.32;66.96;102330.44;2072417;28;20439;-61
2021/11/17 03:45:53;;;;;;;28.00;20.83;;;;;;;9.35;67.30;102324.16;2063230;28;20213;-61
2021/11/17 03:47:18;;;;;;;27.48;19.95;;;;;;;9.29;67.03;102331.22;2072582;28;20457;-61
2021/11/17 03:48:36;;;;;;;26.15;19.38;;;;;;;9.33;67.37;102322.94;2072429;28;20166;-60
2021/11/17 03:50:09;;;;;;;28.13;19.30;;;;;;;9.36;66.80;102327.69;2072481;28;20166;-61
2021/11/17 03:51:39;;;;;;;24.83;18.80;;;;;;;9.37;66.90;102330.09;2080117;28;20559;-61
2021/11/17 03:52:40;;;;;;;24.52;18.83;;;;;;;9.35;67.08;102335.22;2076228;28;20436;-61
2021/11/17 03:54:02;;;;;;;27.87;19.70;;;;;;;9.37;66.82;102338.38;2072488;28;20211;-61
2021/11/17 03:55:27;;;;;;;24.80;19.38;;;;;;;9.37;66.78;102352.22;2072222;28;20258;-61
2021/11/17 03:56:51;;;;;;;23.23;18.37;;;;;;;9.41;66.57;102338.41;2071799;28;20172;-61
2021/11/17 03:58:20;;;;;;;25.20;18.77;;;;;;;9.42;66.37;102335.28;2072039;28;20416;-61
2021/11/17 03:59:38;;;;;;;26.57;18.80;;;;;;;9.45;66.80;102331.75;2072438;28;20405;-61
2021/11/17 04:01:05;;;;;;;24.33;19.43;;;;;;;9.42;66.40;102331.69;2072270;28;20479;-61
2021/11/17 04:02:46;;;;;;;22.20;17.67;;;;;;;9.42;66.75;102334.47;2072391;28;20401;-61
2021/11/17 04:03:53;;;;;;;23.70;18.33;;;;;;;9.37;66.42;102326.53;2071998;28;20436;-61
2021/11/17 04:05:15;;;;;;;26.65;19.27;;;;;;;9.42;66.65;102335.28;2071467;28;20422;-61
2021/11/17 04:06:44;;;;;;;24.55;19.13;;;;;;;9.42;66.22;102328.94;2073232;28;20254;-61
2021/11/17 04:08:06;;;;;;;25.20;18.20;;;;;;;9.42;66.42;102329.72;2073888;28;20167;-61
2021/11/17 04:09:06;;;;;;;22.60;17.90;;;;;;;9.42;66.51;102332.50;2073919;28;20890;-61
2021/11/17 04:10:28;;;;;;;26.77;20.27;;;;;;;9.41;66.64;102332.88;2073709;28;20616;-61
2021/11/17 04:11:41;;;;;;;25.13;19.03;;;;;;;9.41;66.30;102333.69;2073886;28;20183;-61
2021/11/17 04:12:51;;;;;;;23.75;18.42;;;;;;;9.43;66.65;102338.84;2073600;28;20423;-61
2021/11/17 04:13:57;;;;;;;24.70;19.05;;;;;;;9.45;66.38;102336.47;2073292;28;20208;-61
2021/11/17 04:15:23;;;;;;;22.40;18.33;;;;;;;9.44;66.53;102332.91;2073013;28;20203;-61
2021/11/17 04:16:32;;;;;;;21.88;18.15;;;;;;;9.47;66.17;102336.88;2073706;28;20163;-61
2021/11/17 04:18:05;;;;;;;26.03;18.73;;;;;;;9.48;65.99;102342.03;2073347;28;20548;-61
2021/11/17 04:19:18;;;;;;;23.97;18.13;;;;;;;9.49;66.17;102337.31;2064530;28;20494;-61
2021/11/17 04:20:40;;;;;;;24.07;18.33;;;;;;;9.49;66.31;102337.31;2072579;28;20436;-61
2021/11/17 04:21:57;;;;;;;25.70;19.40;;;;;;;9.46;66.08;102341.63;2073761;28;20431;-61
2021/11/17 04:23:23;;;;;;;21.53;17.80;;;;;;;9.44;66.23;102335.66;2073693;28;20423;-61
2021/11/17 04:24:47;;;;;;;24.60;18.40;;;;;;;9.47;66.44;102340.44;2072986;28;20436;-61
2021/11/17 04:26:44;;;;;;;23.90;18.27;;;;;;;9.47;66.34;102337.69;2073300;28;20478;-61
2021/11/17 04:27:54;;;;;;;24.93;18.13;;;;;;;9.46;66.50;102341.63;2064435;28;20456;-61
2021/11/17 04:29:20;;;;;;;23.17;18.73;;;;;;;9.34;66.37;102314.28;2064732;28;20428;-61
2021/11/17 04:30:26;;;;;;;23.37;18.43;;;;;;;9.51;66.11;102337.69;2056595;28;20492;-61
2021/11/17 04:31:48;;;;;;;23.80;17.83;;;;;;;9.50;66.18;102338.88;2059051;28;20484;-61
2021/11/17 04:32:55;;;;;;;22.93;18.43;;;;;;;9.50;66.20;102342.47;2066245;28;20452;-61
2021/11/17 04:34:02;;;;;;;25.43;17.97;;;;;;;9.52;66.04;102339.28;2073587;28;20969;-61
2021/11/17 04:35:26;;;;;;;25.63;18.37;;;;;;;9.53;66.20;102340.91;2073611;28;20984;-61
2021/11/17 04:36:41;;;;;;;24.73;18.30;;;;;;;9.52;65.97;102337.31;2081140;28;20925;-60
2021/11/17 04:37:44;;;;;;;23.10;17.30;;;;;;;9.49;66.28;102340.06;2081826;28;20411;-61
2021/11/17 04:39:18;;;;;;;22.83;17.53;;;;;;;9.46;65.97;102341.63;2081839;28;20455;-61
2021/11/17 04:40:46;;;;;;;23.23;17.77;;;;;;;9.26;66.03;102317.34;2082848;28;20438;-61
2021/11/17 04:41:46;;;;;;;22.17;17.07;;;;;;;9.44;66.34;102335.66;2081642;28;20436;-61
2021/11/17 04:43:14;;;;;;;23.80;17.43;;;;;;;9.43;66.15;102336.84;2081679;28;20934;-61
2021/11/17 04:44:53;;;;;;;24.03;18.13;;;;;;;9.40;66.16;102340.41;2081415;28;20264;-61
2021/11/17 04:46:37;;;;;;;22.73;17.27;;;;;;;9.42;66.39;102340.00;2080627;28;20861;-61
2021/11/17 04:47:56;;;;;;;21.87;15.53;;;;;;;9.39;66.29;102343.53;2078407;28;20442;-61
2021/11/17 04:49:35;;;;;;;21.50;16.43;;;;;;;9.32;66.63;102341.50;2080645;28;20416;-61
2021/11/17 04:50:48;;;;;;;22.53;17.47;;;;;;;9.36;66.54;102342.34;2081100;28;20442;-61
2021/11/17 04:52:13;;;;;;;22.43;16.90;;;;;;;9.39;66.50;102335.25;2081719;28;20430;-61
2021/11/17 04:53:41;;;;;;;18.57;15.70;;;;;;;9.43;66.48;102331.31;2081621;28;20788;-61
2021/11/17 04:54:48;;;;;;;24.57;16.90;;;;;;;9.42;66.55;102338.03;2081176;28;20898;-61
2021/11/17 04:56:10;;;;;;;22.47;16.00;;;;;;;9.45;66.33;102340.06;2080962;28;20846;-61
2021/11/17 04:57:29;;;;;;;20.40;16.67;;;;;;;9.47;65.98;102345.19;2081271;28;20785;-61
2021/11/17 04:58:55;;;;;;;22.37;15.93;;;;;;;9.48;66.14;102346.78;2087975;28;20984;-61
2021/11/17 05:00:03;;;;;;;20.30;15.70;;;;;;;9.46;65.90;102341.63;2077761;28;20419;-61
2021/11/17 05:01:13;;;;;;;21.00;16.43;;;;;;;9.47;65.99;102337.69;2073378;28;20423;-61
2021/11/17 05:02:35;;;;;;;23.80;16.03;;;;;;;9.48;65.97;102341.25;2073492;28;20422;-61
2021/11/17 05:03:42;;;;;;;20.60;15.80;;;;;;;9.49;65.93;102340.06;2073368;28;20448;-61
2021/11/17 05:04:45;;;;;;;21.43;16.57;;;;;;;9.51;65.75;102344.03;2073209;28;20782;-61
2021/11/17 05:05:57;;;;;;;20.73;15.60;;;;;;;9.53;65.67;102341.69;2073434;28;20569;-61
2021/11/17 05:07:20;;;;;;;23.60;16.40;;;;;;;9.53;65.78;102347.22;2073278;28;20455;-61
2021/11/17 05:08:41;;;;;;;21.03;16.47;;;;;;;8.64;65.46;102205.00;2072806;28;20448;-61
2021/11/17 05:09:45;;;;;;;21.40;15.57;;;;;;;9.56;65.65;102349.22;2073177;28;20412;-61
2021/11/17 05:10:51;;;;;;;19.73;16.10;;;;;;;9.55;65.65;102344.06;2080801;28;20419;-61
2021/11/17 05:12:15;;;;;;;22.00;16.40;;;;;;;9.56;65.63;102346.47;2080336;28;20416;-61
2021/11/17 05:13:33;;;;;;;18.60;14.77;;;;;;;9.55;65.73;102341.31;2073290;28;20934;-61
2021/11/17 05:15:01;;;;;;;23.40;15.60;;;;;;;9.54;65.73;102354.34;2073150;28;20424;-61
2021/11/17 05:16:22;;;;;;;22.70;14.87;;;;;;;9.54;65.58;102348.78;2072971;28;20422;-61
2021/11/17 05:17:28;;;;;;;21.40;15.40;;;;;;;9.56;65.58;102349.22;2073360;28;20484;-61
2021/11/17 05:18:56;;;;;;;18.73;15.00;;;;;;;9.55;65.44;102346.84;2073365;28;20434;-61
2021/11/17 05:20:09;;;;;;;21.33;16.03;;;;;;;9.52;65.40;102345.63;2073248;28;20503;-61
2021/11/17 05:21:46;;;;;;;22.83;16.63;;;;;;;9.12;65.55;102286.81;2073421;28;20777;-61
2021/11/17 05:22:58;;;;;;;19.57;15.20;;;;;;;9.50;65.60;102349.97;2072805;28;20408;-61
2021/11/17 05:24:14;;;;;;;21.23;15.97;;;;;;;9.46;65.63;102361.00;2072532;28;20421;-61
2021/11/17 05:25:33;;;;;;;19.30;15.90;;;;;;;9.44;65.48;102351.50;2080847;28;20436;-61
2021/11/17 05:26:42;;;;;;;22.20;16.73;;;;;;;9.47;66.00;102347.94;2072638;28;20456;-61
2021/11/17 05:28:01;;;;;;;21.17;16.07;;;;;;;9.46;65.70;102349.13;2072702;28;20422;-61
2021/11/17 05:29:40;;;;;;;21.77;14.67;;;;;;;9.40;65.46;102356.19;2072667;28;20502;-61
2021/11/17 05:31:12;;;;;;;20.53;13.87;;;;;;;9.41;65.61;102360.56;2056088;28;20452;-61
2021/11/17 05:32:40;;;;;;;17.53;14.40;;;;;;;9.40;65.65;102356.19;2072858;28;20416;-61
2021/11/17 05:33:59;;;;;;;21.40;14.63;;;;;;;9.41;65.62;102363.31;2073168;28;20511;-61
2021/11/17 05:35:02;;;;;;;19.97;15.30;;;;;;;9.41;65.58;102364.13;2073150;28;20411;-61
2021/11/17 05:36:11;;;;;;;19.80;14.70;;;;;;;9.42;65.78;102370.44;2077543;28;20807;-61
2021/11/17 05:37:14;;;;;;;21.47;15.50;;;;;;;9.40;65.81;102357.00;2081456;28;20908;-61
2021/11/17 05:38:44;;;;;;;22.17;16.17;;;;;;;9.40;65.57;102365.31;2081248;28;20439;-61
2021/11/17 05:40:18;;;;;;;21.03;15.10;;;;;;;9.42;65.78;102389.81;2072106;28;20433;-61
2021/11/17 05:41:24;;;;;;;19.07;13.90;;;;;;;9.45;65.66;102370.50;2081242;28;20412;-61
2021/11/17 05:42:34;;;;;;;21.17;14.50;;;;;;;9.47;65.52;102370.91;2081231;28;20800;-61
2021/11/17 05:43:44;;;;;;;19.23;14.67;;;;;;;9.48;65.60;102375.25;2081370;28;20897;-61
2021/11/17 05:45:01;;;;;;;19.73;14.53;;;;;;;9.46;65.39;102372.06;2088361;28;20517;-61
2021/11/17 05:46:29;;;;;;;17.37;14.20;;;;;;;9.45;65.32;102370.50;2087050;28;20412;-61
2021/11/17 05:47:53;;;;;;;19.83;14.40;;;;;;;9.42;65.44;102368.47;2081373;28;20423;-61
2021/11/17 05:49:06;;;;;;;21.00;14.97;;;;;;;9.43;65.11;102363.75;2081110;28;20438;-61
2021/11/17 05:50:06;;;;;;;17.73;14.23;;;;;;;9.43;65.29;102369.28;2081172;28;20414;-61
2021/11/17 05:51:21;;;;;;;17.70;13.90;;;;;;;9.42;65.39;102365.72;2081115;28;20943;-61
2021/11/17 05:52:27;;;;;;;19.07;14.97;;;;;;;9.48;65.12;102371.69;2081290;28;20176;-61
2021/11/17 05:53:46;;;;;;;20.90;15.83;;;;;;;9.35;65.14;102346.28;2081092;28;20407;-61
2021/11/17 05:54:52;;;;;;;19.43;14.60;;;;;;;9.50;65.02;102375.69;2079997;28;20411;-61
2021/11/17 05:56:18;;;;;;;19.77;14.43;;;;;;;9.49;65.01;102373.28;2080771;28;20403;-61
2021/11/17 05:57:40;;;;;;;19.30;14.47;;;;;;;9.51;65.18;102368.94;2080569;28;20412;-61
2021/11/17 05:59:19;;;;;;;19.37;14.93;;;;;;;9.46;65.06;102372.06;2075160;28;20413;-61
2021/11/17 06:00:32;;;;;;;17.63;13.93;;;;;;;9.47;65.10;102370.09;2065898;28;20438;-60
2021/11/17 06:01:50;;;;;;;22.17;15.43;;;;;;;9.47;64.99;102370.09;2072003;28;20444;-61
2021/11/17 06:03:08;;;;;;;19.33;14.50;;;;;;;9.37;65.33;102370.81;2075155;28;20427;-61
2021/11/17 06:04:11;;;;;;;20.00;13.60;;;;;;;9.35;65.42;102371.19;2073173;28;20421;-61
2021/11/17 06:05:11;;;;;;;22.60;14.13;;;;;;;9.33;65.64;102376.28;2070738;28;20420;-61
2021/11/17 06:06:11;;;;;;;21.27;14.93;;;;;;;9.31;65.61;102370.34;2070501;28;20448;-61
2021/11/17 06:07:12;;;;;;;17.97;14.53;;;;;;;9.35;65.68;102373.97;2071970;28;20174;-61
2021/11/17 06:08:12;;;;;;;22.07;15.03;;;;;;;9.38;65.71;102377.94;2071859;28;20251;-61
2021/11/17 06:09:12;;;;;;;19.57;15.33;;;;;;;9.39;65.52;102374.75;2073563;28;20777;-61
2021/11/17 06:10:30;;;;;;;20.50;14.63;;;;;;;9.44;65.16;102370.88;2072117;28;20178;-61
2021/11/17 06:11:37;;;;;;;21.77;14.67;;;;;;;9.46;65.01;102380.38;2075540;28;20211;-61
2021/11/17 06:12:39;;;;;;;19.87;14.23;;;;;;;9.03;64.87;102314.00;2071858;28;20431;-61
2021/11/17 06:13:39;;;;;;;21.27;15.23;;;;;;;9.47;64.53;102379.19;2072202;28;20447;-61
2021/11/17 06:14:43;;;;;;;20.47;15.40;;;;;;;9.48;65.09;102380.00;2072504;28;20525;-61
2021/11/17 06:15:46;;;;;;;20.67;14.27;;;;;;;9.51;64.86;102374.50;2072479;28;20186;-61
2021/11/17 06:16:51;;;;;;;18.53;13.97;;;;;;;9.54;64.92;102382.00;2077186;28;20411;-61
2021/11/17 06:17:54;;;;;;;18.90;14.33;;;;;;;9.54;65.06;102381.22;2074644;28;20424;-61
2021/11/17 06:18:55;;;;;;;19.27;15.47;;;;;;;9.55;64.85;102385.59;2072594;28;20424;-61
2021/11/17 06:19:57;;;;;;;19.33;14.60;;;;;;;9.37;64.94;102354.22;2072150;28;20427;-61
2021/11/17 06:20:58;;;;;;;21.00;14.93;;;;;;;9.56;64.68;102381.63;2072333;28;20435;-61
2021/11/17 06:22:00;;;;;;;21.33;14.77;;;;;;;9.55;64.47;102380.03;2068372;28;20456;-61
2021/11/17 06:23:07;;;;;;;21.20;14.57;;;;;;;9.57;64.39;102377.69;2071058;28;20189;-61
2021/11/17 06:24:09;;;;;;;20.90;15.10;;;;;;;9.55;64.73;102378.09;2071309;28;20424;-61
2021/11/17 06:25:12;;;;;;;17.93;13.80;;;;;;;9.07;64.68;102303.75;2072502;28;20507;-62
2021/11/17 06:26:19;;;;;;;22.73;15.10;;;;;;;9.60;64.88;102385.22;2068849;28;20575;-62
2021/11/17 06:27:25;;;;;;;21.97;15.50;;;;;;;9.49;64.76;102385.13;2068892;28;20439;-61
2021/11/17 06:28:28;;;;;;;21.77;16.00;;;;;;;9.48;64.36;102366.94;2071944;28;20427;-61
2021/11/17 06:29:35;;;;;;;20.77;14.60;;;;;;;9.61;64.36;102393.16;2072512;28;20973;-61
2021/11/17 06:30:40;;;;;;;22.00;15.23;;;;;;;9.57;64.44;102385.97;2071832;28;20450;-61
2021/11/17 06:31:41;;;;;;;22.67;15.40;;;;;;;9.40;64.43;102370.03;2072151;28;20420;-61
2021/11/17 06:32:42;;;;;;;18.80;15.47;;;;;;;9.55;64.34;102389.16;2071937;28;20530;-61
2021/11/17 06:33:43;;;;;;;22.10;15.73;;;;;;;9.55;64.25;102389.16;2072284;28;20425;-61
2021/11/17 06:34:55;;;;;;;19.67;16.00;;;;;;;9.56;64.05;102389.94;2072353;28;20682;-60
2021/11/17 06:35:56;;;;;;;21.07;16.00;;;;;;;9.33;64.27;102358.91;2069787;28;20177;-61
2021/11/17 06:36:59;;;;;;;19.87;14.87;;;;;;;9.51;64.53;102396.63;2072768;28;20440;-61
2021/11/17 06:37:59;;;;;;;20.50;15.73;;;;;;;9.50;64.57;102397.81;2072354;28;20197;-61
2021/11/17 06:38:59;;;;;;;21.40;15.90;;;;;;;9.51;64.82;102396.63;2072472;28;20918;-61
2021/11/17 06:40:04;;;;;;;22.17;16.73;;;;;;;9.49;64.54;102398.97;2072092;28;20177;-61
2021/11/17 06:41:05;;;;;;;20.80;15.37;;;;;;;9.47;64.50;102398.56;2072211;28;20566;-61
2021/11/17 06:42:09;;;;;;;20.60;15.57;;;;;;;9.46;64.68;102394.22;2071954;28;21084;-61
2021/11/17 06:43:10;;;;;;;20.60;15.37;;;;;;;9.19;64.86;102356.00;2071510;28;20427;-61
2021/11/17 06:44:10;;;;;;;18.17;15.57;;;;;;;9.50;64.48;102397.00;2071507;28;20880;-61
2021/11/17 06:45:18;;;;;;;21.27;15.10;;;;;;;9.55;64.47;102394.69;2072151;28;20420;-61
2021/11/17 06:46:18;;;;;;;19.60;15.00;;;;;;;9.55;64.30;102402.19;2072056;28;20265;-61
2021/11/17 06:47:19;;;;;;;23.40;15.30;;;;;;;9.58;64.39;102399.44;2071955;28;20424;-61
2021/11/17 06:48:22;;;;;;;20.17;15.37;;;;;;;9.56;64.81;102403.78;2071974;28;20458;-61
2021/11/17 06:49:22;;;;;;;22.15;15.40;;;;;;;9.28;64.73;102362.03;2071757;28;20180;-62
2021/11/17 06:50:23;;;;;;;22.20;16.53;;;;;;;9.57;64.41;102395.09;2071987;28;20177;-61
2021/11/17 06:51:24;;;;;;;20.50;15.83;;;;;;;9.59;64.40;102392.72;2071699;28;20334;-61
2021/11/17 06:52:24;;;;;;;22.40;14.77;;;;;;;9.62;64.39;102408.59;2071603;28;20424;-61
2021/11/17 06:53:27;;;;;;;27.00;16.03;;;;;;;9.64;64.42;102392.38;2072391;28;20252;-60
2021/11/17 06:54:28;;;;;;;27.30;16.77;;;;;;;9.67;64.34;102390.81;2073422;28;20184;-61
2021/11/17 06:55:28;;;;;;;26.57;15.60;;;;;;;9.67;64.50;102401.88;2071059;28;20557;-61
2021/11/17 06:56:31;;;;;;;21.40;16.17;;;;;;;9.67;64.45;102399.94;2070259;28;20235;-61
2021/11/17 06:57:31;;;;;;;23.20;15.63;;;;;;;9.65;64.29;102398.72;2072280;28;20434;-61
2021/11/17 06:58:32;;;;;;;27.20;16.37;;;;;;;9.66;64.43;102395.56;2071459;28;20179;-61
2021/11/17 06:59:32;;;;;;;34.00;18.87;;;;;;;9.68;64.17;102393.19;2071939;28;20181;-61
2021/11/17 07:00:36;;;;;;;26.33;17.97;;;;;;;9.71;64.15;102402.72;2071827;28;20645;-61
2021/11/17 07:01:36;;;;;;;20.90;15.77;;;;;;;8.98;64.05;102283.91;2071776;28;20189;-61
2021/11/17 07:02:37;;;;;;;21.80;15.70;;;;;;;9.68;63.89;102415.34;2071883;28;20181;-61
2021/11/17 07:03:39;;;;;;;22.17;15.90;;;;;;;9.62;64.30;102391.16;2071889;28;20194;-61
2021/11/17 07:04:40;;;;;;;21.80;16.17;;;;;;;9.64;64.14;102397.91;2071449;28;20420;-61
2021/11/17 07:05:40;;;;;;;23.37;15.60;;;;;;;9.66;64.18;102395.56;2068598;28;20431;-61
2021/11/17 07:06:41;;;;;;;21.37;15.57;;;;;;;9.69;63.98;102399.53;2072132;28;20208;-61
2021/11/17 07:07:42;;;;;;;21.40;15.77;;;;;;;9.71;64.34;102398.00;2072259;28;20239;-61
2021/11/17 07:08:42;;;;;;;24.57;16.37;;;;;;;9.71;63.98;102395.22;2072095;28;20231;-61
2021/11/17 07:09:44;;;;;;;24.67;15.27;;;;;;;9.65;63.95;102391.22;2071842;28;20518;-61
2021/11/17 07:10:44;;;;;;;25.17;16.03;;;;;;;9.63;63.98;102392.78;2071741;28;20193;-61
2021/11/17 07:11:45;;;;;;;23.63;15.97;;;;;;;9.70;64.10;102395.59;2071835;28;20959;-61
2021/11/17 07:12:45;;;;;;;20.40;15.17;;;;;;;9.70;63.84;102395.59;2071787;28;20734;-61
2021/11/17 07:13:46;;;;;;;20.60;15.30;;;;;;;9.70;63.84;102399.16;2071905;28;20193;-61
2021/11/17 07:14:47;;;;;;;19.93;15.87;;;;;;;9.71;63.62;102402.72;2071457;28;20256;-61
2021/11/17 07:15:48;;;;;;;22.23;15.53;;;;;;;9.70;63.86;102388.09;2068068;28;20613;-61
2021/11/17 07:16:51;;;;;;;22.70;15.67;;;;;;;9.73;63.96;102390.06;2072252;28;20438;-62
2021/11/17 07:17:52;;;;;;;18.63;15.97;;;;;;;9.73;63.79;102392.84;2074457;28;20431;-61
2021/11/17 07:18:52;;;;;;;24.67;15.33;;;;;;;9.25;63.68;102308.25;2071295;28;20440;-61
2021/11/17 07:19:53;;;;;;;20.13;15.03;;;;;;;9.75;63.85;102392.47;2070916;28;20184;-61
2021/11/17 07:20:53;;;;;;;20.23;15.60;;;;;;;9.66;63.63;102381.72;2071952;28;20444;-61
2021/11/17 07:21:59;;;;;;;23.13;15.67;;;;;;;9.77;63.92;102390.91;2071671;28;20192;-62
2021/11/17 07:23:00;;;;;;;19.57;14.77;;;;;;;9.80;63.68;102392.91;2071163;28;20192;-62
2021/11/17 07:24:01;;;;;;;20.47;15.63;;;;;;;9.83;63.70;102394.09;2079168;28;21002;-61
2021/11/17 07:25:05;;;;;;;18.17;14.20;;;;;;;9.86;63.53;102387.81;2079178;28;20185;-62
2021/11/17 07:26:06;;;;;;;21.27;14.30;;;;;;;9.85;63.56;102391.75;2071739;28;20430;-60
2021/11/17 07:27:12;;;;;;;19.30;15.17;;;;;;;9.83;63.51;102391.31;2072048;28;20491;-61
2021/11/17 07:28:12;;;;;;;21.53;15.93;;;;;;;9.74;63.34;102388.91;2071931;28;20515;-60
2021/11/17 07:29:14;;;;;;;20.20;15.23;;;;;;;9.69;63.72;102385.69;2071675;28;20419;-61
2021/11/17 07:30:20;;;;;;;24.90;15.23;;;;;;;9.18;63.82;102304.63;2075916;28;20651;-61
2021/11/17 07:31:20;;;;;;;21.57;15.40;;;;;;;9.69;63.83;102386.47;2071834;28;20424;-61
2021/11/17 07:32:23;;;;;;;22.67;15.63;;;;;;;9.60;63.76;102380.50;2067874;28;20512;-61
2021/11/17 07:33:24;;;;;;;19.70;14.68;;;;;;;9.63;63.71;102384.47;2067477;28;20188;-61
2021/11/17 07:34:25;;;;;;;24.13;16.27;;;;;;;9.66;63.84;102390.03;2071803;28;20533;-61
2021/11/17 07:35:25;;;;;;;20.70;16.13;;;;;;;9.70;63.85;102387.28;2071720;28;20662;-61
2021/11/17 07:36:26;;;;;;;19.53;15.53;;;;;;;9.72;63.47;102390.47;2072457;28;20574;-62
2021/11/17 07:37:26;;;;;;;21.10;15.60;;;;;;;9.71;63.89;102392.44;2072006;28;20177;-61
2021/11/17 07:38:27;;;;;;;23.30;16.30;;;;;;;9.69;63.82;102386.47;2079231;28;20193;-61
2021/11/17 07:39:27;;;;;;;23.80;16.00;;;;;;;9.57;63.99;102364.66;2079942;28;20179;-61
2021/11/17 07:40:35;;;;;;;20.30;15.30;;;;;;;9.67;63.87;102390.81;2073358;28;20183;-61
2021/11/17 07:41:36;;;;;;;17.63;14.45;;;;;;;9.67;64.23;102388.84;2073355;28;20195;-61
2021/11/17 07:42:36;;;;;;;20.73;15.73;;;;;;;9.63;64.08;102392.78;2073194;28;20363;-61
2021/11/17 07:43:37;;;;;;;20.00;14.90;;;;;;;9.68;64.14;102386.88;2073316;28;20267;-61
2021/11/17 07:44:38;;;;;;;22.27;15.50;;;;;;;9.64;64.32;102391.59;2073295;28;20195;-61
2021/11/17 07:45:39;;;;;;;18.03;14.47;;;;;;;9.72;64.41;102393.22;2076236;28;20258;-61
2021/11/17 07:46:40;;;;;;;20.52;15.02;;;;;;;9.75;64.25;102390.50;2073829;28;20466;-61
2021/11/17 07:47:40;;;;;;;20.40;15.00;;;;;;;9.79;63.90;102396.84;2073608;28;20227;-61
2021/11/17 07:48:41;;;;;;;22.13;15.50;;;;;;;9.80;63.83;102387.38;2073639;28;20251;-62
2021/11/17 07:49:41;;;;;;;18.53;14.30;;;;;;;9.81;63.63;102397.28;2074660;28;20178;-62
2021/11/17 07:50:43;;;;;;;18.87;15.17;;;;;;;9.84;63.81;102399.25;2073304;28;20217;-61
2021/11/17 07:51:45;;;;;;;20.70;14.83;;;;;;;9.39;63.39;102335.25;2073241;28;20657;-61
2021/11/17 07:52:45;;;;;;;20.03;14.67;;;;;;;9.75;63.72;102398.81;2073315;28;20944;-61
2021/11/17 07:53:46;;;;;;;19.90;14.60;;;;;;;9.80;63.83;102398.47;2073157;28;20800;-61
2021/11/17 07:54:46;;;;;;;21.73;14.43;;;;;;;9.69;63.46;102380.16;2072987;28;20193;-61
2021/11/17 07:55:50;;;;;;;21.53;14.70;;;;;;;9.90;63.63;102399.72;2073462;28;20186;-61
2021/11/17 07:56:51;;;;;;;18.47;15.07;;;;;;;9.85;63.41;102389.75;2073093;28;20445;-61
2021/11/17 07:57:54;;;;;;;21.83;15.67;;;;;;;9.93;63.54;102401.69;2073551;28;20492;-61